createdAt,value
2018-08-24T00:01:27.797Z,18.80
2018-08-24T00:04:12.700Z,18.76
2018-08-24T00:06:57.593Z,18.64
2018-08-24T00:09:42.422Z,18.71
2018-08-24T00:12:27.306Z,18.62
2018-08-24T00:15:12.057Z,18.62
2018-08-24T00:17:56.798Z,18.57
2018-08-24T00:20:41.618Z,18.43
2018-08-24T00:23:26.459Z,18.37
2018-08-24T00:26:11.309Z,18.40
2018-08-24T00:28:56.110Z,18.45
2018-08-24T00:31:41.501Z,18.28
2018-08-24T00:34:26.363Z,18.35
2018-08-24T00:37:11.152Z,18.32
2018-08-24T00:39:55.987Z,18.33
2018-08-24T00:42:40.852Z,18.17
2018-08-24T00:45:25.735Z,18.22
2018-08-24T00:48:10.673Z,18.14
2018-08-24T00:50:55.493Z,18.04
2018-08-24T00:53:40.866Z,17.90
2018-08-24T00:56:25.594Z,17.88
2018-08-24T00:59:10.454Z,17.90
2018-08-24T01:01:55.297Z,18.01
2018-08-24T01:04:40.175Z,17.82
2018-08-24T01:07:25.077Z,17.83
2018-08-24T01:10:29.149Z,17.88
2018-08-24T01:13:15.310Z,17.85
2018-08-24T01:16:03.880Z,17.73
2018-08-24T01:18:48.710Z,17.74
2018-08-24T01:21:33.484Z,17.73
2018-08-24T01:24:18.655Z,17.78
2018-08-24T01:27:04.696Z,17.66
2018-08-24T01:29:49.573Z,17.61
2018-08-24T01:32:34.424Z,17.56
2018-08-24T01:35:19.296Z,17.57
2018-08-24T01:38:04.143Z,17.58
2018-08-24T01:40:48.958Z,17.49
2018-08-24T01:43:33.790Z,17.40
2018-08-24T01:46:18.871Z,17.39
2018-08-24T01:49:03.725Z,17.35
2018-08-24T01:51:48.537Z,17.55
2018-08-24T01:54:33.437Z,17.52
2018-08-24T01:57:18.300Z,17.45
2018-08-24T02:00:03.145Z,17.64
2018-08-24T02:02:47.932Z,17.61
2018-08-24T02:05:32.700Z,17.62
2018-08-24T02:08:17.562Z,17.56
2018-08-24T02:11:02.478Z,17.55
2018-08-24T02:13:52.343Z,17.53
2018-08-24T02:16:38.149Z,17.67
2018-08-24T02:19:28.027Z,17.62
2018-08-24T02:22:16.742Z,17.69
2018-08-24T02:25:01.541Z,17.55
2018-08-24T02:27:46.423Z,17.53
2018-08-24T02:30:31.361Z,17.54
2018-08-24T02:33:16.102Z,17.65
2018-08-24T02:36:00.953Z,17.51
2018-08-24T02:38:45.808Z,17.54
2018-08-24T02:41:30.725Z,17.48
2018-08-24T02:44:15.704Z,17.45
2018-08-24T02:47:00.576Z,17.43
2018-08-24T02:49:45.412Z,17.41
2018-08-24T02:52:30.489Z,17.30
2018-08-24T02:55:15.343Z,17.35
2018-08-24T02:58:00.265Z,17.35
2018-08-24T03:00:45.127Z,17.31
2018-08-24T03:03:29.942Z,17.31
2018-08-24T03:06:15.128Z,17.26
2018-08-24T03:08:59.996Z,17.30
2018-08-24T03:11:44.799Z,17.30
2018-08-24T03:14:29.679Z,17.29
2018-08-24T03:17:19.563Z,17.11
2018-08-24T03:20:04.467Z,17.01
2018-08-24T03:22:49.293Z,17.09
2018-08-24T03:25:34.108Z,17.22
2018-08-24T03:28:18.885Z,17.07
2018-08-24T03:31:03.689Z,17.04
2018-08-24T03:33:48.601Z,16.97
2018-08-24T03:36:33.609Z,16.96
2018-08-24T03:39:18.575Z,17.12
2018-08-24T03:42:03.448Z,17.07
2018-08-24T03:44:48.279Z,16.99
2018-08-24T03:47:33.177Z,16.91
2018-08-24T03:50:18.107Z,17.00
2018-08-24T03:53:02.956Z,16.97
2018-08-24T03:55:47.741Z,16.93
2018-08-24T03:58:32.767Z,16.94
2018-08-24T04:01:17.556Z,16.88
2018-08-24T04:04:02.459Z,16.80
2018-08-24T04:06:47.590Z,16.72
2018-08-24T04:09:32.350Z,16.67
2018-08-24T04:12:17.227Z,16.63
2018-08-24T04:15:02.029Z,16.63
2018-08-24T04:17:46.870Z,16.59
2018-08-24T04:20:31.700Z,16.54
2018-08-24T04:23:16.559Z,16.51
2018-08-24T04:26:01.379Z,16.49
2018-08-24T04:28:46.216Z,16.59
2018-08-24T04:31:31.021Z,16.58
2018-08-24T04:34:15.978Z,16.62
2018-08-24T04:37:00.809Z,16.71
2018-08-24T04:39:45.659Z,16.77
2018-08-24T04:42:30.477Z,16.79
2018-08-24T04:45:15.429Z,16.98
2018-08-24T04:48:00.327Z,16.96
2018-08-24T04:50:45.190Z,17.01
2018-08-24T04:53:30.041Z,17.14
2018-08-24T04:56:14.844Z,17.17
2018-08-24T04:59:00.396Z,17.32
2018-08-24T05:01:45.250Z,17.40
2018-08-24T05:04:30.132Z,17.47
2018-08-24T05:07:14.970Z,17.74
2018-08-24T05:09:59.857Z,17.86
2018-08-24T05:12:44.842Z,17.94
2018-08-24T05:15:29.696Z,17.91
2018-08-24T05:18:14.508Z,17.80
2018-08-24T05:20:59.397Z,18.05
2018-08-24T05:23:44.225Z,18.05
2018-08-24T05:26:29.188Z,18.12
2018-08-24T05:29:14.069Z,18.29
2018-08-24T05:31:58.898Z,18.43
2018-08-24T05:34:43.758Z,18.66
2018-08-24T05:37:28.609Z,18.75
2018-08-24T05:40:13.424Z,18.83
2018-08-24T05:42:58.336Z,18.67
2018-08-24T05:45:43.138Z,18.91
2018-08-24T05:48:28.095Z,18.88
2018-08-24T05:51:13.055Z,18.84
2018-08-24T05:53:57.918Z,18.77
2018-08-24T05:56:42.771Z,18.77
2018-08-24T05:59:27.697Z,18.68
2018-08-24T06:02:12.459Z,18.76
2018-08-24T06:04:57.358Z,18.62
2018-08-24T06:07:42.216Z,18.56
2018-08-24T06:10:26.983Z,18.95
2018-08-24T06:13:16.200Z,18.76
2018-08-24T06:16:00.958Z,18.72
2018-08-24T06:18:45.821Z,19.24
2018-08-24T06:21:30.706Z,19.00
2018-08-24T06:24:15.479Z,19.26
2018-08-24T06:27:00.372Z,19.34
2018-08-24T06:29:45.254Z,19.69
2018-08-24T06:32:30.046Z,20.07
2018-08-24T06:35:14.937Z,20.00
2018-08-24T06:37:59.888Z,20.06
2018-08-24T06:40:44.921Z,20.51
2018-08-24T06:43:29.984Z,20.48
2018-08-24T06:46:14.818Z,20.84
2018-08-24T06:48:59.741Z,21.42
2018-08-24T06:51:44.647Z,21.41
2018-08-24T06:54:29.522Z,21.34
2018-08-24T06:57:14.409Z,21.23
2018-08-24T06:59:59.242Z,21.02
2018-08-24T07:02:44.086Z,20.94
2018-08-24T07:05:29.098Z,20.97
2018-08-24T07:08:13.938Z,21.10
2018-08-24T07:10:58.786Z,21.08
2018-08-24T07:13:43.552Z,21.44
2018-08-24T07:16:28.297Z,21.44
2018-08-24T07:19:13.173Z,21.48
2018-08-24T07:21:58.004Z,21.81
2018-08-24T07:24:43.019Z,21.30
2018-08-24T07:27:27.905Z,21.57
2018-08-24T07:30:12.692Z,21.79
2018-08-24T07:32:57.547Z,22.00
2018-08-24T07:35:42.425Z,21.91
2018-08-24T07:38:27.241Z,22.23
2018-08-24T07:41:12.036Z,22.65
2018-08-24T07:43:56.936Z,22.55
2018-08-24T07:46:42.079Z,22.38
2018-08-24T07:49:26.938Z,22.47
2018-08-24T07:52:11.778Z,22.38
2018-08-24T07:54:56.647Z,22.57
2018-08-24T07:57:41.467Z,22.97
2018-08-24T08:00:26.307Z,22.91
2018-08-24T08:03:11.219Z,22.81
2018-08-24T08:05:56.060Z,23.30
2018-08-24T08:08:40.900Z,23.43
2018-08-24T08:11:26.044Z,23.91
2018-08-24T08:14:11.033Z,24.71
2018-08-24T08:16:59.496Z,24.43
2018-08-24T08:19:44.413Z,24.21
2018-08-24T08:22:29.321Z,24.41
2018-08-24T08:25:14.250Z,24.35
2018-08-24T08:27:59.027Z,24.87
2018-08-24T08:30:43.887Z,24.05
2018-08-24T08:33:28.825Z,23.65
2018-08-24T08:36:13.672Z,23.78
2018-08-24T08:38:58.501Z,24.00
2018-08-24T08:41:43.660Z,23.68
2018-08-24T08:44:28.530Z,23.70
2018-08-24T08:47:13.420Z,23.39
2018-08-24T08:49:58.284Z,23.57
2018-08-24T08:52:43.281Z,23.89
2018-08-24T08:55:28.172Z,24.53
2018-08-24T08:58:12.986Z,24.75
2018-08-24T09:00:57.881Z,24.72
2018-08-24T09:03:42.783Z,25.15
2018-08-24T09:06:27.583Z,25.24
2018-08-24T09:09:12.351Z,24.81
2018-08-24T09:11:57.274Z,24.61
2018-08-24T09:14:42.481Z,24.51
2018-08-24T09:17:32.579Z,24.13
2018-08-24T09:20:22.597Z,23.35
2018-08-24T09:23:12.607Z,22.89
2018-08-24T09:26:02.561Z,22.32
2018-08-24T09:28:48.205Z,22.09
2018-08-24T09:31:35.604Z,22.00
2018-08-24T09:34:20.503Z,21.88
2018-08-24T09:37:09.518Z,21.70
2018-08-24T09:39:54.461Z,21.36
2018-08-24T09:42:39.255Z,21.23
2018-08-24T09:45:24.152Z,21.46
2018-08-24T09:48:14.234Z,21.88
2018-08-24T09:51:04.233Z,21.65
2018-08-24T09:53:54.068Z,21.92
2018-08-24T09:56:40.191Z,21.99
2018-08-24T09:59:25.145Z,21.83
2018-08-24T10:02:25.425Z,21.75
2018-08-24T10:05:15.357Z,21.47
2018-08-24T10:08:05.042Z,21.72
2018-08-24T10:10:49.837Z,21.42
2018-08-24T10:13:34.633Z,20.84
2018-08-24T10:16:19.528Z,20.42
2018-08-24T10:19:04.496Z,20.52
2018-08-24T10:21:49.299Z,20.67
2018-08-24T10:24:34.157Z,20.81
2018-08-24T10:27:18.953Z,20.91
2018-08-24T10:30:04.013Z,21.02
2018-08-24T10:32:48.895Z,21.26
2018-08-24T10:35:34.023Z,21.39
2018-08-24T10:38:18.975Z,21.50
2018-08-24T10:41:03.850Z,21.13
2018-08-24T10:43:48.624Z,20.33
2018-08-24T10:46:33.512Z,20.03
2018-08-24T10:49:18.441Z,20.09
2018-08-24T10:52:03.359Z,20.44
2018-08-24T10:54:48.240Z,20.15
2018-08-24T10:57:33.048Z,20.56
2018-08-24T11:00:18.083Z,20.15
2018-08-24T11:03:02.975Z,20.38
2018-08-24T11:05:47.891Z,20.58
2018-08-24T11:08:32.808Z,20.51
2018-08-24T11:11:17.927Z,20.72
2018-08-24T11:14:02.853Z,20.49
2018-08-24T11:16:47.825Z,21.09
2018-08-24T11:19:32.632Z,20.82
2018-08-24T11:22:17.537Z,20.56
2018-08-24T11:25:02.413Z,20.89
2018-08-24T11:27:47.260Z,20.77
2018-08-24T11:30:32.117Z,20.69
2018-08-24T11:33:17.088Z,20.42
2018-08-24T11:36:02.016Z,20.26
2018-08-24T11:38:46.853Z,19.95
2018-08-24T11:41:31.701Z,19.98
2018-08-24T11:44:16.574Z,20.12
2018-08-24T11:47:01.438Z,20.47
2018-08-24T11:49:46.616Z,20.76
2018-08-24T11:52:31.456Z,20.34
2018-08-24T11:55:16.407Z,20.26
2018-08-24T11:58:01.152Z,19.89
2018-08-24T12:00:46.023Z,20.10
2018-08-24T12:03:30.856Z,19.70
2018-08-24T12:06:15.634Z,19.71
2018-08-24T12:09:00.791Z,19.91
2018-08-24T12:11:45.578Z,19.76
2018-08-24T12:14:30.286Z,20.19
2018-08-24T12:17:19.117Z,19.76
2018-08-24T12:20:04.013Z,19.91
2018-08-24T12:22:48.999Z,20.47
2018-08-24T12:25:33.864Z,20.35
2018-08-24T12:28:18.690Z,20.18
2018-08-24T12:31:03.715Z,20.66
2018-08-24T12:33:48.578Z,21.29
2018-08-24T12:36:33.506Z,21.60
2018-08-24T12:39:18.315Z,21.76
2018-08-24T12:42:03.154Z,20.76
2018-08-24T12:44:48.038Z,20.97
2018-08-24T12:47:32.915Z,21.71
2018-08-24T12:50:18.311Z,21.41
2018-08-24T12:53:03.146Z,21.66
2018-08-24T12:55:48.037Z,22.02
2018-08-24T12:58:32.906Z,22.11
2018-08-24T13:01:18.020Z,22.26
2018-08-24T13:04:02.841Z,22.57
2018-08-24T13:06:47.756Z,22.30
2018-08-24T13:09:32.641Z,22.27
2018-08-24T13:12:17.518Z,22.09
2018-08-24T13:15:02.377Z,22.43
2018-08-24T13:17:47.098Z,22.57
2018-08-24T13:20:32.005Z,23.30
2018-08-24T13:23:16.972Z,23.26
2018-08-24T13:26:01.802Z,22.24
2018-08-24T13:28:46.731Z,22.48
2018-08-24T13:31:31.611Z,22.51
2018-08-24T13:34:16.440Z,22.80
2018-08-24T13:37:01.412Z,23.05
2018-08-24T13:39:46.272Z,22.58
2018-08-24T13:42:31.163Z,22.86
2018-08-24T13:45:16.158Z,22.49
2018-08-24T13:48:00.978Z,22.73
2018-08-24T13:50:45.925Z,22.58
2018-08-24T13:53:30.968Z,22.56
2018-08-24T13:56:16.244Z,22.65
2018-08-24T13:59:01.126Z,22.69
2018-08-24T14:01:46.054Z,22.56
2018-08-24T14:04:31.104Z,22.59
2018-08-24T14:07:16.020Z,22.35
2018-08-24T14:10:00.901Z,22.55
2018-08-24T14:12:45.652Z,22.63
2018-08-24T14:15:30.467Z,22.86
2018-08-24T14:18:18.344Z,22.69
2018-08-24T14:21:03.304Z,22.72
2018-08-24T14:23:48.174Z,22.30
2018-08-24T14:26:33.296Z,23.01
2018-08-24T14:29:18.116Z,22.71
2018-08-24T14:32:02.994Z,22.98
2018-08-24T14:34:47.962Z,22.58
2018-08-24T14:37:32.839Z,22.68
2018-08-24T14:40:18.340Z,22.66
2018-08-24T14:43:03.169Z,22.51
2018-08-24T14:45:47.974Z,22.47
2018-08-24T14:48:32.988Z,22.79
2018-08-24T14:51:17.893Z,22.19
2018-08-24T14:54:02.750Z,22.70
2018-08-24T14:56:47.594Z,22.38
2018-08-24T14:59:32.431Z,22.04
2018-08-24T15:02:17.493Z,22.32
2018-08-24T15:05:02.541Z,22.16
2018-08-24T15:07:47.422Z,22.11
2018-08-24T15:10:32.311Z,22.00
2018-08-24T15:13:17.114Z,22.54
2018-08-24T15:16:01.984Z,22.63
2018-08-24T15:18:46.923Z,22.35
2018-08-24T15:21:31.719Z,22.02
2018-08-24T15:24:16.620Z,22.09
2018-08-24T15:27:02.454Z,22.20
2018-08-24T15:29:47.244Z,21.94
2018-08-24T15:32:32.243Z,21.58
2018-08-24T15:35:17.281Z,21.77
2018-08-24T15:38:02.034Z,21.83
2018-08-24T15:40:46.864Z,21.86
2018-08-24T15:43:31.664Z,21.86
2018-08-24T15:46:16.584Z,21.63
2018-08-24T15:49:01.478Z,21.55
2018-08-24T15:51:46.300Z,21.38
2018-08-24T15:54:31.103Z,21.34
2018-08-24T15:57:15.918Z,21.36
2018-08-24T16:00:01.036Z,21.01
2018-08-24T16:02:45.879Z,21.19
2018-08-24T16:05:30.716Z,21.19
2018-08-24T16:08:15.596Z,21.33
2018-08-24T16:11:00.438Z,21.05
2018-08-24T16:13:45.649Z,21.18
2018-08-24T16:16:30.421Z,21.27
2018-08-24T16:19:15.304Z,20.89
2018-08-24T16:22:00.082Z,20.83
2018-08-24T16:24:44.958Z,20.79
2018-08-24T16:27:33.490Z,20.64
2018-08-24T16:30:18.355Z,20.79
2018-08-24T16:33:03.176Z,20.63
2018-08-24T16:35:48.072Z,20.45
2018-08-24T16:38:33.297Z,20.36
2018-08-24T16:41:18.208Z,20.02
2018-08-24T16:44:02.995Z,20.17
2018-08-24T16:46:47.889Z,20.06
2018-08-24T16:49:32.690Z,20.05
2018-08-24T16:52:17.536Z,20.00
2018-08-24T16:55:02.421Z,19.85
2018-08-24T16:57:48.418Z,19.71
2018-08-24T17:00:33.333Z,19.76
2018-08-24T17:03:18.228Z,19.95
2018-08-24T17:06:03.039Z,19.72
2018-08-24T17:08:47.863Z,19.84
2018-08-24T17:11:32.677Z,19.79
2018-08-24T17:14:17.578Z,19.83
2018-08-24T17:17:02.444Z,19.77
2018-08-24T17:19:47.276Z,19.63
2018-08-24T17:22:32.099Z,19.56
2018-08-24T17:25:16.900Z,19.65
2018-08-24T17:28:01.725Z,19.48
2018-08-24T17:30:46.688Z,19.44
2018-08-24T17:33:31.413Z,19.50
2018-08-24T17:36:16.217Z,19.32
2018-08-24T17:39:01.128Z,19.21
2018-08-24T17:41:46.028Z,19.22
2018-08-24T17:44:30.780Z,19.12
2018-08-24T17:47:15.684Z,19.18
2018-08-24T17:50:00.451Z,19.29
2018-08-24T17:52:45.395Z,19.09
2018-08-24T17:55:30.396Z,19.19
2018-08-24T17:58:15.474Z,19.11
2018-08-24T18:01:00.532Z,19.16
2018-08-24T18:03:45.344Z,19.16
2018-08-24T18:06:30.131Z,18.98
2018-08-24T18:09:14.957Z,18.99
2018-08-24T18:11:59.854Z,18.84
2018-08-24T18:14:44.758Z,18.76
2018-08-24T18:17:29.575Z,18.72
2018-08-24T18:20:14.351Z,18.76
2018-08-24T18:22:59.314Z,18.86
2018-08-24T18:25:44.258Z,18.68
2018-08-24T18:28:29.036Z,18.67
2018-08-24T18:31:14.189Z,18.62
2018-08-24T18:33:59.167Z,18.54
2018-08-24T18:36:44.039Z,18.47
2018-08-24T18:39:28.888Z,18.53
2018-08-24T18:42:13.708Z,18.45
2018-08-24T18:44:58.692Z,18.46
2018-08-24T18:47:43.708Z,18.48
2018-08-24T18:50:28.467Z,18.53
2018-08-24T18:53:13.317Z,18.45
2018-08-24T18:55:58.372Z,18.45
2018-08-24T18:58:43.385Z,18.38
2018-08-24T19:01:28.348Z,18.47
2018-08-24T19:04:13.369Z,18.42
2018-08-24T19:06:58.352Z,18.38
2018-08-24T19:09:43.244Z,18.40
2018-08-24T19:12:29.638Z,18.36
2018-08-24T19:15:14.453Z,18.38
2018-08-24T19:18:04.340Z,18.36
2018-08-24T19:20:54.280Z,18.43
2018-08-24T19:23:39.189Z,18.46
2018-08-24T19:26:24.457Z,18.43
2018-08-24T19:29:14.375Z,18.49
2018-08-24T19:31:59.201Z,18.50
2018-08-24T19:34:44.107Z,18.49
2018-08-24T19:37:29.128Z,18.27
2018-08-24T19:40:19.039Z,18.12
2018-08-24T19:43:03.924Z,18.05
2018-08-24T19:45:49.013Z,18.21
2018-08-24T19:48:39.148Z,17.75
2018-08-24T19:51:24.112Z,17.54
2018-08-24T19:54:09.114Z,17.41
2018-08-24T19:56:54.146Z,17.27
2018-08-24T19:59:39.089Z,17.24
2018-08-24T20:02:24.776Z,17.17
2018-08-24T20:05:10.084Z,17.20
2018-08-24T20:07:59.913Z,17.06
2018-08-24T20:10:44.776Z,16.97
2018-08-24T20:13:29.688Z,16.86
2018-08-24T20:16:19.957Z,16.83
2018-08-24T20:19:05.056Z,16.92
2018-08-24T20:21:49.910Z,16.90
2018-08-24T20:24:34.857Z,16.92
2018-08-24T20:27:19.694Z,16.90
2018-08-24T20:30:04.997Z,16.92
2018-08-24T20:32:50.003Z,16.90
2018-08-24T20:35:35.057Z,16.93
2018-08-24T20:38:20.048Z,17.02
2018-08-24T20:41:04.876Z,17.16
2018-08-24T20:43:49.796Z,17.20
2018-08-24T20:46:34.726Z,17.21
2018-08-24T20:49:20.149Z,17.40
2018-08-24T20:52:05.057Z,17.17
2018-08-24T20:54:49.948Z,17.33
2018-08-24T20:57:34.909Z,17.14
2018-08-24T21:00:20.025Z,17.03
2018-08-24T21:03:04.929Z,16.88
2018-08-24T21:05:49.879Z,16.86
2018-08-24T21:08:34.711Z,16.73
2018-08-24T21:11:19.585Z,16.75
2018-08-24T21:14:04.544Z,16.58
2018-08-24T21:16:49.567Z,16.41
2018-08-24T21:19:34.412Z,16.41
2018-08-24T21:22:19.360Z,16.17
2018-08-24T21:25:04.482Z,16.05
2018-08-24T21:27:49.411Z,15.93
2018-08-24T21:30:34.412Z,15.87
2018-08-24T21:33:19.357Z,15.85
2018-08-24T21:36:04.308Z,15.86
2018-08-24T21:38:49.104Z,15.76
2018-08-24T21:41:34.017Z,15.71
2018-08-24T21:44:18.879Z,15.60
2018-08-24T21:47:04.003Z,15.51
2018-08-24T21:49:48.852Z,15.42
2018-08-24T21:52:33.810Z,15.49
2018-08-24T21:55:18.667Z,15.47
2018-08-24T21:58:03.761Z,15.45
2018-08-24T22:00:48.656Z,15.37
2018-08-24T22:03:33.656Z,15.40
2018-08-24T22:06:18.528Z,15.35
2018-08-24T22:09:03.416Z,15.30
2018-08-24T22:11:48.257Z,15.20
2018-08-24T22:14:33.164Z,15.10
2018-08-24T22:17:18.298Z,15.12
2018-08-24T22:20:03.116Z,15.09
2018-08-24T22:22:47.958Z,15.06
2018-08-24T22:25:32.867Z,14.98
2018-08-24T22:28:17.692Z,14.85
2018-08-24T22:31:02.459Z,14.76
2018-08-24T22:33:47.378Z,14.78
2018-08-24T22:36:32.133Z,14.67
2018-08-24T22:39:16.928Z,14.73
2018-08-24T22:42:01.646Z,14.62
2018-08-24T22:44:46.533Z,14.65
2018-08-24T22:47:31.330Z,14.57
2018-08-24T22:50:16.212Z,14.44
2018-08-24T22:53:01.098Z,14.38
2018-08-24T22:55:45.966Z,14.52
2018-08-24T22:58:30.772Z,14.45
2018-08-24T23:01:15.499Z,14.51
2018-08-24T23:04:00.396Z,14.63
2018-08-24T23:06:45.167Z,14.56
2018-08-24T23:09:30.030Z,14.46
2018-08-24T23:12:14.776Z,14.42
2018-08-24T23:14:59.653Z,14.53
2018-08-24T23:17:44.409Z,14.56
2018-08-24T23:20:29.239Z,14.67
2018-08-24T23:23:14.111Z,14.69
2018-08-24T23:25:58.926Z,14.53
2018-08-24T23:28:43.721Z,14.46
2018-08-24T23:31:28.544Z,14.44
2018-08-24T23:34:13.303Z,14.49
2018-08-24T23:36:58.037Z,14.56
2018-08-24T23:39:42.910Z,14.48
2018-08-24T23:42:27.674Z,14.46
2018-08-24T23:45:12.555Z,14.46
2018-08-24T23:47:57.375Z,14.42
2018-08-24T23:50:42.139Z,14.35
2018-08-24T23:53:26.892Z,14.43
2018-08-24T23:56:11.686Z,14.32
2018-08-24T23:58:56.705Z,14.42
